Time;durP1;ratioP1;P1;durP2;ratioP2;P2;SDS_P1;SDS_P2;PMS_P1;PMS_P2;Temp;Humidity;BMP_temperature;BMP_pressure;BME280_temperature;BME280_humidity;BME280_pressure;Samples;Min_cycle;Max_cycle;Signal;HPM_P1;HPM_P2
2021/12/15 00:00:57;;;;;;;16.10;12.57;;;;;;;5.98;91.27;96610.59;4406484;32;20350;-63
2021/12/15 00:03:24;;;;;;;15.83;12.90;;;;;;;6.06;91.22;96610.22;4406697;32;20396;-64
2021/12/15 00:05:51;;;;;;;15.80;12.67;;;;;;;6.02;91.37;96608.31;4392652;32;20184;-64
2021/12/15 00:08:17;;;;;;;16.87;13.13;;;;;;;6.29;90.45;96621.75;4393180;32;20296;-64
2021/12/15 00:10:45;;;;;;;16.77;13.33;;;;;;;6.04;90.97;96622.03;4405867;32;20275;-64
2021/12/15 00:13:13;;;;;;;16.33;13.27;;;;;;;6.07;90.69;96626.84;4397597;32;20357;-64
2021/12/15 00:15:39;;;;;;;15.27;12.83;;;;;;;6.00;91.43;96623.53;4392177;32;20295;-63
2021/12/15 00:18:05;;;;;;;15.97;12.60;;;;;;;6.11;90.73;96628.78;4407794;32;20359;-64
2021/12/15 00:20:30;;;;;;;18.10;13.27;;;;;;;6.09;90.55;96630.84;4390771;32;20320;-63
2021/12/15 00:22:56;;;;;;;16.60;12.87;;;;;;;5.93;91.73;96625.50;4405711;32;20192;-64
2021/12/15 00:25:25;;;;;;;19.10;14.17;;;;;;;5.89;92.01;96632.25;4389248;32;20199;-64
2021/12/15 00:27:51;;;;;;;17.47;13.03;;;;;;;5.85;92.01;96627.41;4405350;32;20199;-63
2021/12/15 00:30:17;;;;;;;16.40;13.27;;;;;;;6.01;91.86;96633.84;4391603;32;20283;-65
2021/12/15 00:32:43;;;;;;;16.50;12.93;;;;;;;6.03;91.26;96631.75;4404929;32;20184;-64
2021/12/15 00:35:09;;;;;;;16.37;12.90;;;;;;;6.04;91.48;96637.81;4405261;32;20283;-63
2021/12/15 00:37:34;;;;;;;18.10;12.77;;;;;;;6.09;91.43;96636.09;4407126;32;20253;-63
2021/12/15 00:40:00;;;;;;;19.43;14.10;;;;;;;5.85;92.04;96632.66;4404652;32;20284;-65
2021/12/15 00:42:27;;;;;;;17.43;13.53;;;;;;;5.84;91.99;96632.91;4388797;32;20196;-66
2021/12/15 00:44:52;;;;;;;20.47;14.20;;;;;;;5.83;92.32;96626.03;4385752;32;20319;-66
2021/12/15 00:47:18;;;;;;;15.80;13.40;;;;;;;5.83;92.52;96626.03;4391168;32;20348;-65
2021/12/15 00:49:44;;;;;;;17.77;13.40;;;;;;;5.64;92.95;96627.19;4388791;32;20290;-65
2021/12/15 00:52:10;;;;;;;16.70;13.17;;;;;;;5.81;92.99;96638.66;4390924;32;20180;-66
2021/12/15 00:54:37;;;;;;;18.40;13.93;;;;;;;5.93;91.58;96625.50;4407627;32;20297;-66
2021/12/15 00:57:03;;;;;;;17.53;12.77;;;;;;;5.75;91.90;96634.28;4392570;32;20279;-67
2021/12/15 00:59:29;;;;;;;16.77;13.20;;;;;;;5.84;91.94;96638.97;4405039;32;20320;-66
2021/12/15 01:01:55;;;;;;;18.90;13.63;;;;;;;5.74;92.06;96640.59;4405361;32;20276;-66
2021/12/15 01:04:23;;;;;;;16.30;13.03;;;;;;;5.83;92.22;96636.56;4405242;32;20235;-66
2021/12/15 01:06:53;;;;;;;19.40;14.00;;;;;;;5.92;91.82;96640.50;4391499;32;20331;-64
2021/12/15 01:09:29;;;;;;;15.67;12.30;;;;;;;6.06;91.03;96641.03;4390700;32;20362;-58
2021/12/15 01:14:35;;;;;;;18.83;13.70;;;;;;;6.25;89.88;96650.38;4404818;32;20355;-58
2021/12/15 01:19:52;;;;;;;18.20;13.40;;;;;;;6.13;90.23;96655.69;4406076;32;20302;-58
2021/12/15 01:22:30;;;;;;;16.97;13.13;;;;;;;6.32;89.64;96655.53;4406027;32;20275;-58
2021/12/15 01:25:03;;;;;;;15.37;11.83;;;;;;;6.08;89.90;96655.59;4391956;32;20281;-58
2021/12/15 01:27:28;;;;;;;16.80;12.60;;;;;;;6.02;89.73;96658.34;4385511;32;20344;-58
2021/12/15 01:29:54;;;;;;;15.30;12.27;;;;;;;6.14;89.14;96656.50;4405550;32;20272;-58
2021/12/15 01:32:20;;;;;;;13.23;11.67;;;;;;;6.06;89.47;96659.47;4391569;32;20203;-58
2021/12/15 01:34:46;;;;;;;13.40;11.23;;;;;;;6.04;89.70;96657.06;4391256;32;20230;-58
2021/12/15 01:37:12;;;;;;;16.10;12.07;;;;;;;6.29;88.28;96656.00;4406018;32;20292;-59
2021/12/15 01:39:38;;;;;;;13.17;10.83;;;;;;;6.37;87.98;96658.28;4391953;32;20204;-61
2021/12/15 01:42:04;;;;;;;16.50;11.50;;;;;;;6.26;88.07;96664.38;4405009;32;20236;-58
2021/12/15 01:47:02;;;;;;;13.60;11.20;;;;;;;6.44;86.71;96664.22;4395795;32;20238;-58
2021/12/15 01:49:39;;;;;;;12.83;10.90;;;;;;;6.41;86.81;96662.06;4387816;32;20290;-58
2021/12/15 01:52:19;;;;;;;13.10;10.33;;;;;;;6.17;87.50;96666.56;4391395;32;20362;-58
2021/12/15 01:54:49;;;;;;;12.17;10.80;;;;;;;6.45;86.76;96666.59;4403470;32;20270;-59
2021/12/15 01:57:15;;;;;;;12.17;9.80;;;;;;;6.29;87.54;96666.53;4389603;32;20299;-58
2021/12/15 01:59:43;;;;;;;14.80;11.80;;;;;;;6.15;87.86;96677.34;4390249;32;20275;-59
2021/12/15 02:02:09;;;;;;;11.67;9.90;;;;;;;6.26;87.62;96667.81;4403330;32;20310;-59
2021/12/15 02:04:34;;;;;;;11.67;9.97;;;;;;;6.14;88.12;96665.19;4405326;32;20284;-59
2021/12/15 02:07:04;;;;;;;12.30;9.70;;;;;;;5.94;88.60;96667.41;4387762;32;20184;-59
2021/12/15 02:12:04;;;;;;;13.87;10.87;;;;;;;6.09;88.09;96657.19;4402573;32;20287;-58
2021/12/15 02:14:31;;;;;;;11.33;10.00;;;;;;;6.30;87.03;96658.41;4406038;32;20276;-59
2021/12/15 02:16:58;;;;;;;14.27;11.27;;;;;;;6.34;86.77;96659.53;4406093;32;20183;-59
2021/12/15 02:19:23;;;;;;;11.70;9.70;;;;;;;6.14;88.04;96649.38;4406165;32;20348;-59
2021/12/15 02:21:49;;;;;;;12.80;10.63;;;;;;;6.19;87.88;96654.78;4406459;32;20295;-59
2021/12/15 02:24:14;;;;;;;13.93;11.00;;;;;;;6.33;87.30;96649.22;4406453;32;20259;-59
2021/12/15 02:26:45;;;;;;;11.13;9.40;;;;;;;6.46;86.83;96656.88;4397177;32;20230;-59
2021/12/15 02:29:16;;;;;;;12.27;10.27;;;;;;;6.30;87.22;96657.59;4379638;32;20263;-59
2021/12/15 02:37:17;;;;;;;11.97;10.50;;;;;;;6.18;87.27;96650.53;4406321;32;20294;-59
2021/12/15 02:39:44;;;;;;;12.13;9.53;;;;;;;6.22;87.02;96645.59;4392090;32;20275;-59
2021/12/15 02:42:09;;;;;;;12.33;9.33;;;;;;;6.23;87.41;96646.41;4385904;32;20295;-59
2021/12/15 02:44:35;;;;;;;10.63;9.50;;;;;;;6.28;87.22;96649.13;4389775;32;20363;-59
2021/12/15 02:47:01;;;;;;;14.33;10.60;;;;;;;6.19;87.52;96641.59;4392173;32;20180;-60
2021/12/15 02:49:28;;;;;;;12.07;10.77;;;;;;;6.22;87.55;96645.59;4390974;32;20189;-58
2021/12/15 02:51:57;;;;;;;11.53;10.23;;;;;;;6.01;88.79;96639.13;4400282;32;20265;-59
2021/12/15 02:54:24;;;;;;;13.27;10.50;;;;;;;6.10;88.34;96647.44;4396726;32;20275;-59
2021/12/15 02:56:52;;;;;;;11.70;9.77;;;;;;;6.23;88.09;96639.31;4393904;32;20287;-59
2021/12/15 02:59:32;;;;;;;12.83;10.13;;;;;;;6.04;88.72;96648.37;4393984;32;20359;-59
2021/12/15 03:02:20;;;;;;;11.77;10.17;;;;;;;6.04;88.72;96643.91;4399677;32;20351;-59
2021/12/15 03:05:02;;;;;;;10.73;9.63;;;;;;;6.16;87.78;96646.53;4394087;32;20290;-58
2021/12/15 03:07:36;;;;;;;12.83;10.07;;;;;;;6.38;87.08;96654.63;4407879;32;20363;-58
2021/12/15 03:15:36;;;;;;;12.53;10.27;;;;;;;6.42;86.90;96646.00;4408058;32;20298;-59
2021/12/15 03:18:07;;;;;;;12.60;10.67;;;;;;;6.55;87.03;96651.00;4394064;32;20268;-58
2021/12/15 03:20:37;;;;;;;14.07;10.80;;;;;;;6.61;86.88;96646.63;4408190;32;20267;-58
2021/12/15 03:23:06;;;;;;;15.37;12.03;;;;;;;6.68;86.94;96649.13;4407192;32;20286;-58
2021/12/15 03:25:32;;;;;;;12.93;10.87;;;;;;;6.61;86.52;96649.28;4407735;32;20339;-58
2021/12/15 03:36:24;;;;;;;14.63;11.50;;;;;;;6.31;88.22;96638.94;4407303;32;20375;-58
2021/12/15 03:38:49;;;;;;;14.47;11.40;;;;;;;6.54;87.25;96643.31;4388450;32;20297;-58
2021/12/15 03:41:15;;;;;;;14.07;11.33;;;;;;;6.64;87.00;96645.38;4407622;32;20272;-58
2021/12/15 03:43:40;;;;;;;12.90;10.73;;;;;;;6.33;87.73;96651.88;4407083;32;20175;-59
2021/12/15 03:46:14;;;;;;;12.63;11.27;;;;;;;6.20;88.83;96653.75;4408992;32;20188;-59
2021/12/15 03:48:42;;;;;;;10.87;9.57;;;;;;;6.29;88.45;96654.16;4406413;32;20180;-59
2021/12/15 03:51:08;;;;;;;11.57;10.13;;;;;;;6.29;87.95;96656.00;4405141;32;20371;-63
2021/12/15 03:53:34;;;;;;;12.70;9.80;;;;;;;6.18;88.18;96660.28;4394861;32;20288;-59
2021/12/15 03:56:01;;;;;;;11.50;9.93;;;;;;;6.13;88.72;96660.97;4391787;32;20192;-59
2021/12/15 03:58:26;;;;;;;12.90;10.53;;;;;;;6.15;88.51;96656.25;4392642;32;20195;-59
2021/12/15 04:00:56;;;;;;;13.47;11.03;;;;;;;6.08;89.16;96663.47;4380151;32;20287;-58
2021/12/15 04:03:36;;;;;;;17.00;12.13;;;;;;;5.97;89.51;96664.31;4393376;32;20200;-58
2021/12/15 04:06:07;;;;;;;15.00;11.13;;;;;;;5.82;90.87;96664.72;4393261;32;20286;-58
2021/12/15 04:08:34;;;;;;;17.70;12.47;;;;;;;5.87;91.30;96664.84;4393266;32;20285;-58
2021/12/15 04:11:05;;;;;;;14.73;12.07;;;;;;;5.69;92.33;96666.78;4392991;32;20275;-58
2021/12/15 04:13:32;;;;;;;17.67;13.00;;;;;;;5.78;92.42;96662.81;4392857;32;20314;-58
2021/12/15 04:16:04;;;;;;;18.50;13.53;;;;;;;5.67;93.12;96674.12;4406872;32;20404;-58
2021/12/15 04:18:31;;;;;;;16.90;12.47;;;;;;;5.74;93.13;96672.19;4393261;32;20287;-58
2021/12/15 04:20:56;;;;;;;17.90;13.03;;;;;;;5.80;92.87;96671.28;4406762;32;20279;-58
2021/12/15 04:23:21;;;;;;;19.23;13.60;;;;;;;5.71;93.24;96670.00;4392769;32;20298;-58
2021/12/15 04:25:51;;;;;;;19.53;12.93;;;;;;;5.74;93.33;96672.19;4393222;32;20191;-58
2021/12/15 04:28:20;;;;;;;19.03;14.13;;;;;;;5.95;92.50;96674.28;4392715;32;20188;-58
2021/12/15 04:30:57;;;;;;;17.87;14.03;;;;;;;6.04;91.95;96672.88;4392912;32;20288;-58
2021/12/15 04:33:27;;;;;;;18.73;13.77;;;;;;;6.10;91.63;96673.78;4390314;32;20284;-58
2021/12/15 04:35:55;;;;;;;17.77;13.87;;;;;;;6.08;91.47;96687.19;4405269;32;20308;-58
2021/12/15 04:38:23;;;;;;;18.63;14.73;;;;;;;6.06;91.19;96681.34;4404970;32;20390;-60
2021/12/15 04:40:50;;;;;;;19.47;13.87;;;;;;;6.08;91.57;96670.59;4368693;32;20281;-58
2021/12/15 04:43:16;;;;;;;21.37;15.00;;;;;;;5.90;92.05;96683.88;4375349;32;20288;-58
2021/12/15 04:45:42;;;;;;;20.60;14.37;;;;;;;6.01;92.27;96676.00;4375081;32;20303;-58
2021/12/15 04:48:09;;;;;;;22.13;15.50;;;;;;;6.02;92.31;96676.78;4378850;32;20284;-58
2021/12/15 04:50:35;;;;;;;19.90;14.63;;;;;;;5.97;92.41;96685.37;4391583;32;20203;-58
2021/12/15 04:53:03;;;;;;;20.50;14.73;;;;;;;5.92;92.55;96681.81;4377216;32;20280;-58
2021/12/15 04:55:29;;;;;;;19.83;14.77;;;;;;;5.84;92.61;96681.09;4379414;32;20351;-58
2021/12/15 04:57:56;;;;;;;19.20;13.50;;;;;;;5.90;92.70;96683.88;4377520;32;20326;-58
2021/12/15 05:00:26;;;;;;;21.30;14.90;;;;;;;5.93;92.25;96689.50;4373561;32;20329;-59
2021/12/15 05:02:52;;;;;;;21.43;15.07;;;;;;;5.86;92.96;96683.50;4371764;32;20281;-58
2021/12/15 05:05:20;;;;;;;19.80;14.93;;;;;;;5.93;92.99;96683.44;4362429;32;20302;-58
2021/12/15 05:07:45;;;;;;;19.23;14.27;;;;;;;5.88;93.21;96694.59;4366011;32;20192;-58
2021/12/15 05:10:11;;;;;;;21.83;15.50;;;;;;;5.77;93.70;96690.16;4383836;32;20365;-59
2021/12/15 05:12:38;;;;;;;20.23;14.93;;;;;;;5.75;94.01;96693.03;4396421;32;20180;-59
2021/12/15 05:15:05;;;;;;;20.40;14.13;;;;;;;5.81;94.04;96694.75;4366915;32;20284;-58
2021/12/15 05:17:31;;;;;;;19.00;14.47;;;;;;;5.94;92.75;96696.38;4364346;32;20280;-58
2021/12/15 05:20:01;;;;;;;23.20;15.70;;;;;;;5.99;92.94;96703.59;4377056;32;20279;-59
2021/12/15 05:22:26;;;;;;;18.17;14.07;;;;;;;5.92;92.70;96714.22;4375183;32;20204;-59
2021/12/15 05:24:52;;;;;;;23.30;15.63;;;;;;;6.02;92.80;96711.03;4375072;32;20281;-59
2021/12/15 05:27:18;;;;;;;18.70;14.20;;;;;;;6.07;92.78;96709.28;4386650;32;20207;-59
2021/12/15 05:29:46;;;;;;;19.20;13.83;;;;;;;6.01;92.67;96712.88;4380762;32;20208;-58
2021/12/15 05:32:16;;;;;;;16.50;12.87;;;;;;;6.20;91.57;96714.34;4381683;32;20208;-59
2021/12/15 05:34:41;;;;;;;12.77;11.47;;;;;;;6.16;91.38;96713.19;4396992;32;20287;-59
2021/12/15 05:37:07;;;;;;;13.67;12.27;;;;;;;6.22;90.94;96718.56;4379903;32;20280;-59
2021/12/15 05:39:34;;;;;;;14.00;11.03;;;;;;;6.15;90.69;96714.22;4379168;32;20181;-59
2021/12/15 05:41:59;;;;;;;11.20;9.57;;;;;;;6.20;90.38;96721.44;4390478;32;20359;-59
2021/12/15 05:44:25;;;;;;;13.20;10.37;;;;;;;6.34;89.64;96716.72;4390331;32;20283;-59
2021/12/15 05:46:54;;;;;;;10.90;9.73;;;;;;;6.17;90.02;96722.69;4392225;32;20210;-59
2021/12/15 05:49:20;;;;;;;12.87;11.53;;;;;;;6.32;89.75;96731.97;4398620;32;20195;-59
2021/12/15 05:51:46;;;;;;;13.43;11.13;;;;;;;6.26;90.05;96731.03;4383094;32;20299;-61
2021/12/15 05:54:12;;;;;;;14.57;12.13;;;;;;;6.13;90.65;96726.81;4382442;32;20276;-61
2021/12/15 05:56:38;;;;;;;16.50;13.33;;;;;;;6.16;90.55;96736.91;4395559;32;20280;-61
2021/12/15 05:59:04;;;;;;;21.40;14.40;;;;;;;6.07;91.27;96738.25;4374633;32;20231;-61
2021/12/15 06:01:30;;;;;;;16.87;14.70;;;;;;;6.12;91.43;96740.22;4394212;32;20207;-61
2021/12/15 06:03:56;;;;;;;15.93;13.73;;;;;;;6.11;91.54;96739.41;4394180;32;20351;-61
2021/12/15 06:06:22;;;;;;;18.43;15.10;;;;;;;6.10;91.77;96742.28;4393946;32;20206;-61
2021/12/15 06:08:47;;;;;;;22.13;14.80;;;;;;;6.30;90.81;96749.81;4382083;32;20227;-61
2021/12/15 06:11:13;;;;;;;20.67;15.63;;;;;;;6.19;90.84;96746.97;4393497;32;20288;-61
2021/12/15 06:13:39;;;;;;;16.27;13.90;;;;;;;6.06;91.12;96746.41;4393340;32;20192;-64
2021/12/15 06:16:05;;;;;;;19.03;13.93;;;;;;;6.07;91.33;96748.00;4395330;32;20289;-61
2021/12/15 06:18:32;;;;;;;15.43;12.47;;;;;;;5.98;91.65;96749.38;4392465;32;20193;-61
2021/12/15 06:20:59;;;;;;;14.70;11.93;;;;;;;6.05;91.36;96764.03;4387841;32;20291;-61
2021/12/15 06:23:24;;;;;;;17.17;11.43;;;;;;;5.93;91.49;96767.69;4392936;32;20327;-61
2021/12/15 06:25:55;;;;;;;16.17;12.23;;;;;;;6.03;91.30;96763.47;4392352;32;20284;-61
2021/12/15 06:28:22;;;;;;;13.20;11.10;;;;;;;6.12;90.93;96766.56;4392002;32;20188;-61
2021/12/15 06:30:47;;;;;;;15.60;12.50;;;;;;;6.05;91.16;96771.13;4391800;32;20281;-61
2021/12/15 06:33:14;;;;;;;18.20;14.23;;;;;;;6.24;90.20;96774.44;4389035;32;20310;-61
2021/12/15 06:35:40;;;;;;;17.43;12.87;;;;;;;6.11;90.55;96773.66;4392212;32;20184;-62
2021/12/15 06:38:06;;;;;;;15.60;12.37;;;;;;;6.24;90.56;96777.09;4388834;32;20280;-61
2021/12/15 06:40:34;;;;;;;17.87;12.63;;;;;;;6.25;90.32;96778.69;4397984;32;20322;-61
2021/12/15 06:43:00;;;;;;;17.07;12.70;;;;;;;6.38;89.46;96778.47;4382281;32;20214;-61
2021/12/15 06:45:34;;;;;;;14.57;11.33;;;;;;;6.10;90.26;96774.69;4378573;32;20280;-61
2021/12/15 06:58:55;;;;;;;16.60;13.40;;;;;;;6.05;90.63;96802.75;4406828;32;20428;-61
2021/12/15 07:01:21;;;;;;;17.90;13.70;;;;;;;6.18;90.12;96795.44;4408016;32;20284;-61
2021/12/15 07:03:46;;;;;;;17.20;15.37;;;;;;;6.17;90.63;96807.00;4406937;32;20185;-61
2021/12/15 07:06:12;;;;;;;36.50;24.97;;;;;;;6.27;90.01;96811.69;4394261;32;20192;-61
2021/12/15 07:08:37;;;;;;;20.23;16.07;;;;;;;6.20;90.16;96811.81;4392705;32;20223;-61
2021/12/15 07:11:06;;;;;;;20.50;16.37;;;;;;;6.04;90.70;96812.47;4405244;32;20247;-61
2021/12/15 07:13:33;;;;;;;17.77;14.50;;;;;;;6.07;90.62;96817.28;4380973;32;20302;-61
2021/12/15 07:16:00;;;;;;;18.13;14.73;;;;;;;6.13;90.50;96808.50;4382142;32;20305;-61
2021/12/15 07:18:49;;;;;;;19.70;14.43;;;;;;;6.08;90.44;96818.91;4394851;32;20354;-61
2021/12/15 07:21:20;;;;;;;20.10;13.53;;;;;;;6.22;89.81;96818.69;4389889;32;20320;-61
2021/12/15 07:23:47;;;;;;;16.40;12.93;;;;;;;6.19;90.00;96815.50;4393835;32;20344;-61
2021/12/15 07:26:13;;;;;;;19.00;13.97;;;;;;;6.26;89.74;96804.00;4404777;32;20272;-61
2021/12/15 07:28:38;;;;;;;15.50;12.47;;;;;;;6.29;89.47;96809.63;4403279;32;20318;-61
2021/12/15 07:31:06;;;;;;;15.33;12.27;;;;;;;6.36;89.18;96814.81;4392948;32;20208;-60
2021/12/15 07:33:31;;;;;;;15.93;10.57;;;;;;;6.36;89.07;96814.81;4400655;32;20180;-61
2021/12/15 07:35:58;;;;;;;43.77;9.50;;;;;;;6.22;89.21;96821.34;4396752;32;20161;-56
2021/12/15 07:38:23;;;;;;;14.60;9.20;;;;;;;8.83;100.00;96820.31;4388023;32;20208;-57
2021/12/15 07:40:49;;;;;;;13.63;9.20;;;;;;;9.70;93.34;96808.06;4377734;32;20299;-57
2021/12/15 07:43:23;;;;;;;12.63;9.70;;;;;;;10.63;79.74;96801.38;4372583;32;20372;-56
2021/12/15 07:45:54;;;;;;;15.97;9.50;;;;;;;11.16;73.65;96818.13;4392153;32;20207;-56
2021/12/15 07:48:21;;;;;;;14.43;10.47;;;;;;;12.02;76.23;96824.50;4366978;32;20177;-57
2021/12/15 07:50:49;;;;;;;16.17;11.33;;;;;;;12.35;69.24;96827.69;4388967;32;20196;-56
2021/12/15 07:53:16;;;;;;;15.13;11.67;;;;;;;12.70;66.04;96829.50;4392731;32;20235;-55
2021/12/15 07:55:42;;;;;;;13.97;11.60;;;;;;;12.86;64.29;96828.44;4401772;32;20211;-57
2021/12/15 07:58:09;;;;;;;14.70;12.13;;;;;;;12.92;63.14;96832.66;4408147;32;20180;-57
2021/12/15 08:00:36;;;;;;;13.33;10.63;;;;;;;13.22;62.06;96845.13;4406848;32;20192;-57
2021/12/15 08:03:02;;;;;;;12.10;10.37;;;;;;;13.17;61.80;96850.47;4392888;32;20180;-57
2021/12/15 08:05:28;;;;;;;12.73;11.30;;;;;;;13.26;61.35;96848.84;4389674;32;20192;-57
2021/12/15 08:07:54;;;;;;;17.10;11.53;;;;;;;13.39;60.64;96850.12;4381581;32;20184;-57
2021/12/15 08:10:20;;;;;;;13.30;10.90;;;;;;;13.44;60.30;96852.78;4405806;32;20192;-58
2021/12/15 08:12:46;;;;;;;14.33;11.73;;;;;;;13.15;61.08;96857.09;4407111;32;20230;-57
2021/12/15 08:15:13;;;;;;;12.47;11.17;;;;;;;13.08;60.89;96863.53;4407526;32;20189;-55
2021/12/15 08:17:40;;;;;;;15.53;11.33;;;;;;;13.15;60.57;96859.78;4387067;32;20192;-52
2021/12/15 08:20:11;;;;;;;15.57;9.73;;;;;;;13.25;68.75;96863.25;4390933;32;20180;-57
2021/12/15 08:22:38;;;;;;;14.53;9.13;;;;;;;13.03;69.73;96860.87;4397016;32;20228;-56
2021/12/15 08:25:05;;;;;;;11.90;9.00;;;;;;;13.05;71.02;96858.75;4392658;32;20252;-57
2021/12/15 08:27:30;;;;;;;15.07;11.73;;;;;;;13.17;70.01;96857.66;4404517;32;20192;-62
2021/12/15 08:29:56;;;;;;;14.33;11.50;;;;;;;11.89;64.70;96859.56;4399631;32;20181;-61
2021/12/15 08:32:21;;;;;;;12.27;10.97;;;;;;;10.67;69.10;96866.19;4406122;32;20233;-62
2021/12/15 08:34:47;;;;;;;13.53;11.30;;;;;;;9.56;73.23;96866.75;4400864;32;20234;-60
2021/12/15 08:37:14;;;;;;;12.47;10.47;;;;;;;8.96;75.81;96872.09;4404701;32;20198;-60
2021/12/15 08:39:44;;;;;;;12.93;10.10;;;;;;;8.24;79.66;96870.22;4381310;32;20246;-63
2021/12/15 08:42:11;;;;;;;13.20;10.60;;;;;;;7.80;81.91;96873.66;4376502;32;20249;-58
2021/12/15 08:44:37;;;;;;;13.60;11.33;;;;;;;7.39;84.13;96870.25;4389884;32;20188;-58
2021/12/15 08:47:04;;;;;;;13.67;10.30;;;;;;;7.23;85.30;96877.09;4405689;32;20176;-56
2021/12/15 08:49:30;;;;;;;13.40;11.33;;;;;;;7.05;86.31;96868.53;4389034;32;20298;-57
2021/12/15 08:51:56;;;;;;;13.37;10.13;;;;;;;7.31;85.97;96869.81;4395140;32;20272;-57
2021/12/15 08:54:23;;;;;;;13.63;10.47;;;;;;;7.35;85.95;96861.19;4403853;32;20194;-59
2021/12/15 08:56:50;;;;;;;13.50;10.47;;;;;;;7.27;86.16;96864.22;4399707;32;20195;-60
2021/12/15 08:59:18;;;;;;;13.90;9.40;;;;;;;7.28;85.85;96868.44;4394870;32;20314;-60
2021/12/15 09:01:45;;;;;;;11.57;10.33;;;;;;;7.58;87.48;96869.03;4396539;32;20320;-59
2021/12/15 09:04:11;;;;;;;15.43;11.23;;;;;;;7.93;86.73;96873.38;4403133;32;20313;-60
2021/12/15 09:06:39;;;;;;;17.80;12.00;;;;;;;8.20;83.74;96873.56;4398081;32;20298;-64
2021/12/15 09:09:06;;;;;;;17.80;11.97;;;;;;;8.15;83.09;96876.13;4389719;32;20283;-61
2021/12/15 09:11:32;;;;;;;14.30;11.50;;;;;;;8.05;83.28;96876.75;4402493;32;20276;-60
2021/12/15 09:14:00;;;;;;;19.77;11.27;;;;;;;7.90;83.69;96879.91;4390209;32;20323;-62
2021/12/15 09:16:28;;;;;;;31.10;18.80;;;;;;;7.92;84.01;96877.03;4405954;32;20299;-60
2021/12/15 09:18:55;;;;;;;17.27;12.80;;;;;;;7.62;85.33;96871.22;4389837;32;20275;-60
2021/12/15 09:21:24;;;;;;;16.37;11.50;;;;;;;7.44;85.77;96870.38;4402157;32;20292;-61
2021/12/15 09:23:49;;;;;;;14.33;11.70;;;;;;;7.29;86.86;96872.69;4401931;32;20279;-61
2021/12/15 09:26:16;;;;;;;15.40;11.30;;;;;;;7.41;86.27;96876.13;4388902;32;20349;-61
2021/12/15 09:28:41;;;;;;;20.07;13.20;;;;;;;7.35;86.81;96869.13;4404566;32;20184;-62
2021/12/15 09:31:09;;;;;;;14.33;11.13;;;;;;;7.41;86.00;96870.84;4398262;32;20309;-61
2021/12/15 09:33:38;;;;;;;11.27;10.07;;;;;;;7.28;85.72;96865.81;4392512;32;20258;-61
2021/12/15 09:36:04;;;;;;;13.57;10.90;;;;;;;7.20;86.97;96868.81;4385851;32;20279;-60
2021/12/15 09:38:30;;;;;;;13.13;10.33;;;;;;;7.17;87.47;96864.00;4382893;32;20276;-62
2021/12/15 09:40:59;;;;;;;13.57;10.53;;;;;;;7.16;87.79;96862.41;4390479;32;20271;-60
2021/12/15 09:43:27;;;;;;;11.87;10.47;;;;;;;7.19;87.71;96867.22;4392737;32;20218;-59
2021/12/15 09:46:02;;;;;;;14.47;10.57;;;;;;;7.19;88.04;96867.22;4376015;32;20288;-58
2021/12/15 10:02:26;;;;;;;11.57;9.83;;;;;;;7.07;88.23;96867.22;4386668;32;23747;-59
2021/12/15 10:18:45;;;;;;;11.70;9.07;;;;;;;7.43;87.07;96857.41;4397302;32;20312;-59
2021/12/15 10:21:33;;;;;;;12.13;8.87;;;;;;;7.18;88.27;96857.69;4400565;32;20279;-59
2021/12/15 10:23:58;;;;;;;10.30;8.63;;;;;;;7.43;87.11;96852.13;4397723;32;20275;-59
2021/12/15 10:26:24;;;;;;;12.27;9.53;;;;;;;7.45;86.70;96847.41;4398827;32;20311;-59
2021/12/15 10:28:52;;;;;;;13.77;8.90;;;;;;;6.99;87.92;96845.69;4383549;32;20185;-59
2021/12/15 10:31:21;;;;;;;10.03;8.83;;;;;;;7.02;88.53;96845.25;4381728;32;20337;-61
2021/12/15 10:33:52;;;;;;;11.87;9.37;;;;;;;7.22;88.25;96837.72;4395929;32;20321;-59
2021/12/15 10:36:28;;;;;;;11.90;9.87;;;;;;;7.31;87.78;96843.41;4394550;32;20288;-58
2021/12/15 10:39:03;;;;;;;12.60;9.53;;;;;;;7.31;87.41;96843.41;4392832;32;20374;-58
2021/12/15 10:41:32;;;;;;;14.47;9.83;;;;;;;7.41;86.33;96846.28;4393040;32;20368;-57
2021/12/15 10:44:14;;;;;;;12.20;10.10;;;;;;;7.53;85.89;96841.75;4391185;32;20292;-58
2021/12/15 10:46:49;;;;;;;9.27;8.33;;;;;;;7.64;85.98;96838.25;4383026;32;20287;-59
2021/12/15 10:49:18;;;;;;;12.53;9.27;;;;;;;7.77;84.94;96839.81;4406850;32;20353;-59
2021/12/15 10:51:45;;;;;;;12.30;8.87;;;;;;;7.82;85.06;96837.25;4393443;32;20291;-59
2021/12/15 10:54:11;;;;;;;9.53;8.53;;;;;;;7.80;84.66;96831.41;4393967;32;20353;-59
2021/12/15 10:56:40;;;;;;;10.37;9.27;;;;;;;7.87;84.70;96838.16;4394033;32;20298;-59
2021/12/15 10:59:12;;;;;;;12.07;8.93;;;;;;;7.79;84.70;96838.53;4392302;32;20355;-58
2021/12/15 11:01:52;;;;;;;9.43;8.30;;;;;;;7.86;84.69;96841.03;4404917;32;20290;-59
2021/12/15 11:04:20;;;;;;;11.53;9.50;;;;;;;7.92;84.24;96842.69;4387729;32;20325;-60
2021/12/15 11:07:00;;;;;;;9.90;8.90;;;;;;;7.74;84.69;96840.25;4392647;32;20334;-64
2021/12/15 11:09:25;;;;;;;8.30;7.50;;;;;;;7.79;84.86;96838.53;4394950;32;20286;-58
2021/12/15 11:12:04;;;;;;;8.53;7.63;;;;;;;7.76;84.94;96835.56;4391732;32;20276;-57
2021/12/15 11:14:33;;;;;;;8.93;6.93;;;;;;;7.67;85.11;96827.22;4392436;32;20243;-57
2021/12/15 11:17:24;;;;;;;6.97;6.27;;;;;;;7.51;85.47;96828.78;4390247;32;20295;-58
2021/12/15 11:20:12;;;;;;;8.63;5.67;;;;;;;7.39;85.52;96827.22;4394184;32;20286;-58
2021/12/15 11:22:48;;;;;;;6.33;5.67;;;;;;;7.26;86.69;96832.78;4393936;32;20291;-58
2021/12/15 11:25:32;;;;;;;8.10;5.70;;;;;;;7.44;86.48;96822.84;4393467;32;20334;-58
2021/12/15 11:28:18;;;;;;;6.13;5.63;;;;;;;7.57;85.76;96817.28;4406575;32;20279;-58
2021/12/15 11:30:55;;;;;;;7.30;5.17;;;;;;;7.52;85.57;96811.09;4407071;32;20276;-58
2021/12/15 11:33:30;;;;;;;8.93;5.93;;;;;;;7.56;85.61;96810.38;4381466;32;20282;-58
2021/12/15 11:36:06;;;;;;;6.30;5.67;;;;;;;7.51;85.82;96805.00;4391641;32;20311;-60
2021/12/15 11:38:37;;;;;;;5.27;4.87;;;;;;;7.33;86.05;96810.47;4406115;32;20302;-57
2021/12/15 11:41:11;;;;;;;4.90;4.50;;;;;;;7.29;86.58;96809.34;4405679;32;20275;-57
2021/12/15 11:43:51;;;;;;;5.30;4.87;;;;;;;7.45;86.33;96810.44;4392497;32;20275;-58
2021/12/15 11:46:25;;;;;;;5.43;4.63;;;;;;;7.78;85.65;96805.22;4391292;32;20401;-58
2021/12/15 11:49:01;;;;;;;4.27;3.90;;;;;;;7.80;84.93;96808.44;4390982;32;20283;-58
2021/12/15 11:51:35;;;;;;;5.77;4.57;;;;;;;7.69;85.09;96806.63;4393678;32;20283;-58
2021/12/15 11:54:01;;;;;;;4.07;3.47;;;;;;;7.74;84.72;96804.09;4403648;32;20305;-58
2021/12/15 11:56:33;;;;;;;3.47;3.27;;;;;;;7.75;84.67;96810.19;4392817;32;20326;-59
2021/12/15 11:59:16;;;;;;;2.90;2.60;;;;;;;7.42;85.27;96803.81;4399575;32;20284;-59
2021/12/15 12:01:52;;;;;;;2.80;2.60;;;;;;;7.75;84.37;96807.53;4392243;32;20337;-59
2021/12/15 12:04:29;;;;;;;3.20;3.00;;;;;;;7.81;83.84;96803.94;4405668;32;20295;-59
2021/12/15 12:07:13;;;;;;;2.90;2.70;;;;;;;7.77;83.66;96790.41;4397302;32;20328;-61
2021/12/15 12:09:40;;;;;;;3.23;2.90;;;;;;;7.92;83.29;96792.50;4392909;32;20329;-60
2021/12/15 12:12:07;;;;;;;3.00;2.70;;;;;;;7.94;82.67;96796.50;4406199;32;20380;-60
2021/12/15 12:14:48;;;;;;;2.63;2.43;;;;;;;8.00;82.33;96794.75;4388106;32;20276;-60
2021/12/15 12:17:20;;;;;;;2.60;2.40;;;;;;;8.13;82.23;96789.12;4381052;32;20285;-59
2021/12/15 12:19:52;;;;;;;3.07;2.87;;;;;;;8.14;82.08;96789.94;4402588;32;20288;-64
2021/12/15 12:22:20;;;;;;;2.90;2.70;;;;;;;7.98;82.61;96791.53;4394177;32;20279;-59
2021/12/15 12:24:49;;;;;;;2.63;2.50;;;;;;;8.06;82.00;96785.88;4405626;32;20322;-60
2021/12/15 12:27:15;;;;;;;2.77;2.60;;;;;;;7.87;82.24;96779.22;4395786;32;20294;-60
2021/12/15 12:29:42;;;;;;;2.80;2.60;;;;;;;8.11;82.00;96783.28;4390892;32;20284;-60
2021/12/15 12:32:08;;;;;;;2.73;2.53;;;;;;;8.12;81.55;96776.97;4394460;32;20299;-60
2021/12/15 12:34:34;;;;;;;3.10;2.80;;;;;;;8.25;80.57;96766.06;4402699;32;20371;-60
2021/12/15 12:37:00;;;;;;;3.83;3.57;;;;;;;8.30;79.85;96757.41;4401518;32;20191;-59
2021/12/15 12:39:34;;;;;;;3.90;3.60;;;;;;;8.26;79.72;96770.31;4404318;32;20262;-60
2021/12/15 12:42:00;;;;;;;4.33;4.03;;;;;;;8.37;79.39;96767.84;4386000;32;20248;-60
2021/12/15 12:44:37;;;;;;;3.60;3.30;;;;;;;8.27;80.34;96764.00;4385255;32;20306;-60